Time;durP1;ratioP1;P1;durP2;ratioP2;P2;SDS_P1;SDS_P2;PMS_P1;PMS_P2;Temp;Humidity;BMP_temperature;BMP_pressure;BME280_temperature;BME280_humidity;BME280_pressure;Samples;Min_cycle;Max_cycle;Signal;HPM_P1;HPM_P2
2023/03/23 00:02:21;;;;;;;3.57;2.63;;;;;;;;;;5069756;28;20212;-42
2023/03/23 00:04:50;;;;;;;2.97;2.53;;;;;;;;;;5073758;28;20213;-37
2023/03/23 00:07:20;;;;;;;4.43;2.70;;;;;;;;;;5066389;28;20245;-37
2023/03/23 00:09:52;;;;;;;3.63;2.70;;;;;;;;;;5073162;28;20206;-39
2023/03/23 00:12:19;;;;;;;2.80;2.53;;;;;;;;;;5065082;28;20666;-41
2023/03/23 00:14:47;;;;;;;4.40;2.53;;;;;;;;;;5064982;28;20202;-40
2023/03/23 00:17:15;;;;;;;4.87;3.10;;;;;;;;;;5064764;28;20810;-41
2023/03/23 00:19:46;;;;;;;2.50;2.30;;;;;;;;;;5062640;28;20315;-38
2023/03/23 00:22:16;;;;;;;5.83;2.80;;;;;;;;;;5052344;28;20202;-40
2023/03/23 00:27:14;;;;;;;4.80;2.93;;;;;;;;;;5059095;28;20264;-35
2023/03/23 00:29:42;;;;;;;3.87;3.07;;;;;;;;;;5047159;28;20210;-37
2023/03/23 00:32:12;;;;;;;3.60;3.23;;;;;;;;;;5047344;28;20210;-32
2023/03/23 00:34:41;;;;;;;3.87;2.70;;;;;;;;;;5060367;28;20674;-38
2023/03/23 00:37:09;;;;;;;3.20;2.47;;;;;;;;;;5053210;28;20253;-32
2023/03/23 00:39:45;;;;;;;4.97;2.93;;;;;;;;;;5049212;28;20289;-35
2023/03/23 00:42:13;;;;;;;4.40;2.70;;;;;;;;;;5057857;28;20204;-31
2023/03/23 00:44:40;;;;;;;3.97;2.50;;;;;;;;;;5062764;28;20237;-33
2023/03/23 00:47:09;;;;;;;4.50;3.17;;;;;;;;;;5059266;28;20248;-39
2023/03/23 00:49:37;;;;;;;4.40;2.57;;;;;;;;;;5062469;28;20208;-35
2023/03/23 00:52:05;;;;;;;2.90;2.60;;;;;;;;;;5053428;28;20206;-30
2023/03/23 00:54:33;;;;;;;3.67;2.73;;;;;;;;;;5040165;28;20292;-32
2023/03/23 00:57:01;;;;;;;3.80;2.87;;;;;;;;;;5047963;28;20260;-37
2023/03/23 00:59:29;;;;;;;4.10;2.70;;;;;;;;;;5060349;28;20211;-39
2023/03/23 01:01:56;;;;;;;2.87;2.60;;;;;;;;;;5054316;28;20280;-37
2023/03/23 01:04:23;;;;;;;3.10;2.40;;;;;;;;;;5051910;28;20210;-38
2023/03/23 01:06:51;;;;;;;3.60;2.70;;;;;;;;;;5052590;28;20233;-39
2023/03/23 01:09:19;;;;;;;3.13;2.80;;;;;;;;;;5041691;28;20281;-35
2023/03/23 01:11:46;;;;;;;4.13;3.03;;;;;;;;;;5047328;28;20202;-41
2023/03/23 01:14:16;;;;;;;7.50;3.00;;;;;;;;;;5056980;28;20976;-32
2023/03/23 01:16:44;;;;;;;3.17;2.67;;;;;;;;;;5061295;28;20247;-35
2023/03/23 01:19:11;;;;;;;3.30;2.67;;;;;;;;;;5057915;28;20604;-40
2023/03/23 01:21:38;;;;;;;4.67;2.57;;;;;;;;;;5053746;28;20236;-35
2023/03/23 01:24:06;;;;;;;3.10;2.53;;;;;;;;;;5048223;28;20206;-31
2023/03/23 01:26:33;;;;;;;4.77;2.87;;;;;;;;;;5061120;28;20240;-36
2023/03/23 01:29:00;;;;;;;4.23;2.47;;;;;;;;;;5059508;28;20589;-31
2023/03/23 01:31:29;;;;;;;4.47;2.83;;;;;;;;;;5045638;28;20217;-34
2023/03/23 01:33:56;;;;;;;3.63;2.70;;;;;;;;;;5066754;28;20214;-32
2023/03/23 01:36:25;;;;;;;4.20;2.80;;;;;;;;;;5052001;28;20210;-33
2023/03/23 01:38:52;;;;;;;3.60;2.73;;;;;;;;;;5053215;28;20228;-31
2023/03/23 01:41:20;;;;;;;4.00;3.23;;;;;;;;;;5064337;28;20296;-32
2023/03/23 01:43:58;;;;;;;5.07;2.70;;;;;;;;;;5049298;28;20221;-32
2023/03/23 01:46:27;;;;;;;3.73;2.47;;;;;;;;;;5045783;28;20239;-36
2023/03/23 01:48:56;;;;;;;3.37;2.73;;;;;;;;;;5051340;28;20312;-38
2023/03/23 01:51:23;;;;;;;2.77;2.57;;;;;;;;;;5051589;28;20240;-33
2023/03/23 01:53:53;;;;;;;2.97;2.63;;;;;;;;;;5039760;28;20220;-36
2023/03/23 01:56:24;;;;;;;5.30;3.30;;;;;;;;;;5049247;28;20202;-33
2023/03/23 01:58:52;;;;;;;2.70;2.27;;;;;;;;;;5030260;28;20570;-35
2023/03/23 02:01:21;;;;;;;5.30;3.00;;;;;;;;;;5041633;28;20214;-32
2023/03/23 02:03:49;;;;;;;4.47;2.40;;;;;;;;;;5052765;28;20209;-31
2023/03/23 02:06:17;;;;;;;5.87;2.63;;;;;;;;;;5069915;28;20308;-31
2023/03/23 02:08:45;;;;;;;4.90;2.80;;;;;;;;;;5069611;28;20224;-38
2023/03/23 02:11:14;;;;;;;3.93;2.73;;;;;;;;;;5046052;28;20213;-34
2023/03/23 02:13:42;;;;;;;4.07;2.73;;;;;;;;;;5056532;28;20213;-41
2023/03/23 02:16:12;;;;;;;3.30;2.77;;;;;;;;;;5041431;28;20205;-33
2023/03/23 02:18:49;;;;;;;6.27;3.13;;;;;;;;;;5051848;28;20257;-35
2023/03/23 02:21:31;;;;;;;4.50;2.80;;;;;;;;;;5071498;28;20227;-34
2023/03/23 02:24:10;;;;;;;4.17;2.77;;;;;;;;;;5019609;28;20213;-35
2023/03/23 02:26:45;;;;;;;5.83;3.17;;;;;;;;;;5057807;28;20337;-35
2023/03/23 02:29:22;;;;;;;3.90;2.87;;;;;;;;;;5046358;28;20225;-34
2023/03/23 02:31:58;;;;;;;4.53;2.87;;;;;;;;;;5042783;28;20205;-36
2023/03/23 02:34:28;;;;;;;7.73;3.00;;;;;;;;;;5067152;28;20651;-31
2023/03/23 02:36:59;;;;;;;3.13;2.70;;;;;;;;;;5070815;28;20232;-33
2023/03/23 02:39:30;;;;;;;3.53;2.67;;;;;;;;;;5045664;28;20234;-38
2023/03/23 02:41:58;;;;;;;6.13;2.63;;;;;;;;;;5052631;28;20209;-34
2023/03/23 02:44:29;;;;;;;3.10;2.70;;;;;;;;;;5047690;28;20206;-30
2023/03/23 02:46:57;;;;;;;3.03;2.60;;;;;;;;;;5056426;28;20275;-39
2023/03/23 02:49:27;;;;;;;6.50;2.73;;;;;;;;;;5062068;28;20284;-31
2023/03/23 02:51:55;;;;;;;5.00;2.93;;;;;;;;;;5060771;28;20217;-29
2023/03/23 02:54:24;;;;;;;6.60;2.93;;;;;;;;;;5040462;28;20241;-34
2023/03/23 02:56:51;;;;;;;12.03;3.10;;;;;;;;;;5070029;28;20282;-32
2023/03/23 02:59:19;;;;;;;5.03;2.77;;;;;;;;;;5059768;28;20207;-36
2023/03/23 03:01:49;;;;;;;3.27;2.50;;;;;;;;;;5043573;28;20206;-32
2023/03/23 03:04:18;;;;;;;4.33;3.03;;;;;;;;;;5065747;28;20209;-36
2023/03/23 03:06:50;;;;;;;3.93;3.13;;;;;;;;;;5070611;28;20236;-36
2023/03/23 03:09:23;;;;;;;4.60;3.30;;;;;;;;;;5048351;28;20239;-36
2023/03/23 03:11:52;;;;;;;3.27;2.97;;;;;;;;;;5055412;28;20185;-36
2023/03/23 03:14:22;;;;;;;5.00;2.73;;;;;;;;;;5059767;28;20206;-35
2023/03/23 03:16:54;;;;;;;3.47;2.73;;;;;;;;;;5053521;28;20218;-36
2023/03/23 03:19:25;;;;;;;8.03;2.93;;;;;;;;;;5066616;28;20201;-33
2023/03/23 03:21:54;;;;;;;3.83;3.00;;;;;;;;;;5070652;28;20216;-33
2023/03/23 03:24:22;;;;;;;4.63;2.90;;;;;;;;;;5043501;28;20214;-31
2023/03/23 03:26:52;;;;;;;4.43;2.83;;;;;;;;;;5055132;28;20239;-32
2023/03/23 03:29:20;;;;;;;3.93;3.03;;;;;;;;;;5066868;28;20236;-36
2023/03/23 03:31:48;;;;;;;3.37;3.07;;;;;;;;;;5053966;28;20202;-31
2023/03/23 03:34:17;;;;;;;3.50;2.97;;;;;;;;;;5058017;28;20202;-36
2023/03/23 03:36:45;;;;;;;6.33;3.27;;;;;;;;;;5050611;28;20258;-32
2023/03/23 03:39:15;;;;;;;4.00;2.67;;;;;;;;;;5047756;28;20281;-31
2023/03/23 03:41:42;;;;;;;3.20;2.53;;;;;;;;;;5064292;28;20228;-31
2023/03/23 03:44:10;;;;;;;4.40;2.70;;;;;;;;;;5049701;28;20207;-33
2023/03/23 03:46:37;;;;;;;5.27;3.47;;;;;;;;;;5044496;28;20253;-35
2023/03/23 03:49:06;;;;;;;6.30;3.00;;;;;;;;;;5057768;28;20229;-30
2023/03/23 03:51:34;;;;;;;3.83;2.57;;;;;;;;;;5050206;28;20299;-31
2023/03/23 03:54:01;;;;;;;7.47;3.03;;;;;;;;;;5048883;28;20213;-34
2023/03/23 03:56:32;;;;;;;3.47;2.73;;;;;;;;;;5051807;28;20236;-36
2023/03/23 03:58:59;;;;;;;3.53;3.10;;;;;;;;;;5064456;28;20280;-34
2023/03/23 04:01:26;;;;;;;3.20;2.90;;;;;;;;;;5050908;28;20210;-33
2023/03/23 04:03:53;;;;;;;3.50;3.10;;;;;;;;;;5057759;28;20221;-36
2023/03/23 04:06:21;;;;;;;6.07;3.10;;;;;;;;;;5050791;28;20210;-37
2023/03/23 04:08:48;;;;;;;3.17;2.80;;;;;;;;;;5043042;28;20249;-36
2023/03/23 04:11:16;;;;;;;4.37;2.70;;;;;;;;;;5067017;28;20216;-38
2023/03/23 04:13:44;;;;;;;5.40;2.43;;;;;;;;;;5051687;28;20288;-40
2023/03/23 04:16:11;;;;;;;3.37;2.60;;;;;;;;;;5044012;28;20210;-33
2023/03/23 04:18:38;;;;;;;5.40;3.03;;;;;;;;;;5047702;28;20206;-36
2023/03/23 04:21:07;;;;;;;4.73;2.73;;;;;;;;;;5049371;28;20221;-30
2023/03/23 04:23:35;;;;;;;4.23;2.77;;;;;;;;;;5044717;28;20239;-32
2023/03/23 04:26:03;;;;;;;3.53;2.70;;;;;;;;;;5047393;28;20212;-37
2023/03/23 04:28:33;;;;;;;2.97;2.47;;;;;;;;;;5066175;28;20224;-33
2023/03/23 04:31:02;;;;;;;2.93;2.67;;;;;;;;;;5039933;28;20209;-38
2023/03/23 04:33:30;;;;;;;3.37;2.67;;;;;;;;;;5046377;28;20301;-29
2023/03/23 04:35:58;;;;;;;2.83;2.40;;;;;;;;;;5051138;28;20210;-35
2023/03/23 04:38:25;;;;;;;4.60;2.80;;;;;;;;;;5040028;28;20315;-35
2023/03/23 04:40:54;;;;;;;3.17;2.33;;;;;;;;;;5059739;28;20206;-33
2023/03/23 04:43:22;;;;;;;5.53;2.83;;;;;;;;;;5051192;28;20221;-33
2023/03/23 04:45:55;;;;;;;5.30;2.70;;;;;;;;;;5046597;28;20202;-34
2023/03/23 04:48:24;;;;;;;2.60;2.20;;;;;;;;;;5057520;28;20222;-34
2023/03/23 04:50:51;;;;;;;3.97;2.97;;;;;;;;;;5032737;28;20211;-34
2023/03/23 04:53:19;;;;;;;4.13;2.53;;;;;;;;;;5034434;28;20225;-37
2023/03/23 04:55:47;;;;;;;4.37;2.97;;;;;;;;;;5052452;28;20202;-37
2023/03/23 04:58:14;;;;;;;3.60;2.70;;;;;;;;;;5052098;28;20257;-33
2023/03/23 05:00:43;;;;;;;4.00;2.80;;;;;;;;;;5048433;28;20269;-31
2023/03/23 05:03:11;;;;;;;2.77;2.40;;;;;;;;;;5056710;28;20235;-29
2023/03/23 05:05:40;;;;;;;8.07;2.63;;;;;;;;;;5071256;28;20209;-33
2023/03/23 05:08:07;;;;;;;2.47;2.27;;;;;;;;;;5061992;28;20229;-33
2023/03/23 05:10:34;;;;;;;2.70;2.30;;;;;;;;;;5036806;28;20230;-32
2023/03/23 05:13:01;;;;;;;3.40;2.60;;;;;;;;;;5060500;28;20202;-34
2023/03/23 05:15:28;;;;;;;5.03;2.77;;;;;;;;;;5051145;28;20221;-38
2023/03/23 05:17:55;;;;;;;3.97;2.67;;;;;;;;;;5041304;28;20309;-34
2023/03/23 05:20:22;;;;;;;3.00;2.80;;;;;;;;;;5045772;28;20427;-36
2023/03/23 05:22:51;;;;;;;3.73;3.00;;;;;;;;;;5044992;28;20199;-36
2023/03/23 05:25:19;;;;;;;4.23;3.00;;;;;;;;;;5040755;28;20210;-37
2023/03/23 05:27:48;;;;;;;3.43;2.33;;;;;;;;;;5044997;28;20315;-32
2023/03/23 05:30:16;;;;;;;3.70;2.80;;;;;;;;;;5048410;28;20249;-38
2023/03/23 05:32:44;;;;;;;6.27;2.80;;;;;;;;;;5043366;28;20209;-34
2023/03/23 05:35:12;;;;;;;2.77;2.40;;;;;;;;;;5037659;28;20218;-32
2023/03/23 05:37:40;;;;;;;4.47;2.80;;;;;;;;;;5030968;28;20327;-29
2023/03/23 05:40:09;;;;;;;4.20;2.50;;;;;;;;;;5046652;28;20206;-38
2023/03/23 05:42:37;;;;;;;3.23;2.53;;;;;;;;;;5052951;28;20255;-32
2023/03/23 05:45:04;;;;;;;4.67;2.63;;;;;;;;;;5051907;28;20197;-35
2023/03/23 05:47:32;;;;;;;3.03;2.50;;;;;;;;;;5061035;28;20221;-35
2023/03/23 05:50:00;;;;;;;3.10;2.80;;;;;;;;;;5053398;28;20229;-33
2023/03/23 05:52:27;;;;;;;4.90;2.70;;;;;;;;;;5053719;28;20212;-31
2023/03/23 05:54:55;;;;;;;4.90;3.00;;;;;;;;;;5048994;28;20206;-32
2023/03/23 05:57:23;;;;;;;3.27;2.70;;;;;;;;;;5052983;28;20252;-31
2023/03/23 05:59:50;;;;;;;4.47;2.77;;;;;;;;;;5049052;28;20212;-38
2023/03/23 06:02:17;;;;;;;3.07;2.73;;;;;;;;;;5052938;28;20212;-35
2023/03/23 06:04:45;;;;;;;2.63;2.43;;;;;;;;;;5062991;28;20208;-33
2023/03/23 06:07:13;;;;;;;3.27;2.63;;;;;;;;;;5073015;28;20713;-37
2023/03/23 06:09:41;;;;;;;5.27;3.00;;;;;;;;;;5057756;28;20222;-32
2023/03/23 06:12:09;;;;;;;3.67;2.90;;;;;;;;;;5050256;28;20648;-35
2023/03/23 06:14:38;;;;;;;4.13;3.73;;;;;;;;;;5062643;28;20198;-37
2023/03/23 06:17:05;;;;;;;3.17;2.50;;;;;;;;;;5052854;28;20252;-34
2023/03/23 06:19:34;;;;;;;2.90;2.50;;;;;;;;;;5052990;28;20198;-31
2023/03/23 06:22:02;;;;;;;4.40;2.30;;;;;;;;;;5053484;28;20216;-40
2023/03/23 06:26:57;;;;;;;3.30;2.77;;;;;;;;;;5000463;28;20314;-31
2023/03/23 06:29:24;;;;;;;3.73;2.97;;;;;;;;;;4995511;28;20254;-29
2023/03/23 06:31:55;;;;;;;2.87;2.50;;;;;;;;;;5001420;28;20207;-39
2023/03/23 06:34:23;;;;;;;2.97;2.67;;;;;;;;;;5003015;28;20238;-37
2023/03/23 06:36:50;;;;;;;4.10;3.03;;;;;;;;;;5011346;28;20234;-35
2023/03/23 06:39:17;;;;;;;4.23;2.50;;;;;;;;;;5007744;28;20215;-38
2023/03/23 06:41:44;;;;;;;4.47;2.73;;;;;;;;;;5003167;28;20203;-32
2023/03/23 06:44:13;;;;;;;5.70;2.50;;;;;;;;;;4994945;28;20215;-36
2023/03/23 06:46:40;;;;;;;3.73;3.20;;;;;;;;;;4995277;28;20239;-34
2023/03/23 06:49:09;;;;;;;3.57;3.10;;;;;;;;;;4990939;28;20588;-35
2023/03/23 06:51:37;;;;;;;2.83;2.50;;;;;;;;;;4991718;28;20215;-37
2023/03/23 06:54:04;;;;;;;3.10;2.83;;;;;;;;;;4994526;28;20235;-33
2023/03/23 06:56:31;;;;;;;3.23;2.80;;;;;;;;;;5001014;28;20224;-33
2023/03/23 06:58:59;;;;;;;4.00;2.50;;;;;;;;;;4989999;28;20307;-39
2023/03/23 07:01:27;;;;;;;3.60;3.00;;;;;;;;;;4995284;28;20207;-38
2023/03/23 07:03:55;;;;;;;3.17;2.73;;;;;;;;;;5002300;28;20207;-36
2023/03/23 07:06:26;;;;;;;7.97;3.23;;;;;;;;;;5010494;28;20207;-33
2023/03/23 07:08:53;;;;;;;7.73;6.40;;;;;;;;;;4998517;28;20207;-38
2023/03/23 07:11:20;;;;;;;5.97;3.93;;;;;;;;;;4999200;28;20233;-31
2023/03/23 07:13:49;;;;;;;2.70;2.50;;;;;;;;;;4989623;28;20200;-35
2023/03/23 07:16:19;;;;;;;5.23;3.30;;;;;;;;;;5002073;28;20274;-35
2023/03/23 07:18:46;;;;;;;6.20;3.47;;;;;;;;;;4990521;28;20204;-39
2023/03/23 07:21:13;;;;;;;4.33;3.20;;;;;;;;;;4991433;28;20207;-32
2023/03/23 07:23:42;;;;;;;5.87;3.20;;;;;;;;;;4989535;28;20317;-34
2023/03/23 07:26:09;;;;;;;2.90;2.70;;;;;;;;;;5008503;28;20222;-33
2023/03/23 07:28:36;;;;;;;4.00;3.50;;;;;;;;;;4992427;28;20206;-38
2023/03/23 07:31:03;;;;;;;3.93;3.47;;;;;;;;;;4990412;28;20251;-35
2023/03/23 07:33:31;;;;;;;3.77;3.03;;;;;;;;;;4992538;28;20204;-37
2023/03/23 07:36:00;;;;;;;4.57;2.60;;;;;;;;;;5011501;28;20207;-35
2023/03/23 07:38:28;;;;;;;3.60;2.77;;;;;;;;;;5003133;28;20257;-37
2023/03/23 07:40:57;;;;;;;5.10;3.30;;;;;;;;;;5010940;28;20290;-36
2023/03/23 07:43:26;;;;;;;4.07;2.63;;;;;;;;;;5010857;28;20265;-34
2023/03/23 07:45:53;;;;;;;5.57;3.40;;;;;;;;;;4992089;28;20212;-32
2023/03/23 07:48:20;;;;;;;5.10;3.00;;;;;;;;;;5007054;28;20234;-34
2023/03/23 07:50:47;;;;;;;4.47;3.10;;;;;;;;;;5010730;28;20219;-35
2023/03/23 07:53:15;;;;;;;2.90;2.50;;;;;;;;;;5010340;28;20230;-35
2023/03/23 07:55:42;;;;;;;3.30;2.90;;;;;;;;;;5001164;28;20261;-34
2023/03/23 07:58:11;;;;;;;5.17;2.90;;;;;;;;;;4997080;28;20227;-36
2023/03/23 08:00:40;;;;;;;4.67;2.67;;;;;;;;;;4992691;28;20262;-38
2023/03/23 08:03:07;;;;;;;4.40;2.80;;;;;;;;;;4996362;28;20211;-32
2023/03/23 08:05:34;;;;;;;3.50;2.87;;;;;;;;;;5009908;28;20207;-39
2023/03/23 08:08:01;;;;;;;3.70;2.50;;;;;;;;;;5007493;28;20235;-35
2023/03/23 08:10:29;;;;;;;4.67;2.90;;;;;;;;;;4994489;28;20234;-31
2023/03/23 08:12:57;;;;;;;3.97;2.83;;;;;;;;;;4993009;28;20196;-35
2023/03/23 08:15:26;;;;;;;5.43;3.00;;;;;;;;;;4992122;28;20204;-35
2023/03/23 08:17:53;;;;;;;3.37;3.03;;;;;;;;;;4996914;28;20499;-36
2023/03/23 08:20:22;;;;;;;4.63;3.00;;;;;;;;;;5009434;28;20199;-36
2023/03/23 08:22:52;;;;;;;5.63;3.07;;;;;;;;;;5007166;28;20203;-35
2023/03/23 08:25:20;;;;;;;4.30;3.27;;;;;;;;;;4998300;28;20238;-31
2023/03/23 08:27:47;;;;;;;5.97;3.53;;;;;;;;;;5003600;28;20223;-39
2023/03/23 08:30:15;;;;;;;4.27;3.40;;;;;;;;;;4997973;28;20293;-32
2023/03/23 08:32:44;;;;;;;5.07;3.20;;;;;;;;;;4999667;28;20212;-30
2023/03/23 08:35:12;;;;;;;5.60;2.83;;;;;;;;;;4998642;28;20208;-37
2023/03/23 08:37:41;;;;;;;3.50;2.50;;;;;;;;;;4998358;28;20308;-33
2023/03/23 08:40:10;;;;;;;3.07;2.57;;;;;;;;;;4991942;28;20204;-37
2023/03/23 08:42:38;;;;;;;2.97;2.10;;;;;;;;;;5009190;28;20203;-29
2023/03/23 08:45:06;;;;;;;2.37;1.80;;;;;;;;;;5000416;28;20267;-35
2023/03/23 08:47:33;;;;;;;4.30;2.20;;;;;;;;;;4995588;28;20321;-33
2023/03/23 08:50:02;;;;;;;4.70;1.93;;;;;;;;;;4999362;28;20225;-35
2023/03/23 08:52:30;;;;;;;2.27;2.00;;;;;;;;;;4998372;28;20202;-35
2023/03/23 08:54:57;;;;;;;2.47;2.00;;;;;;;;;;4997703;28;20204;-37
2023/03/23 08:57:25;;;;;;;3.23;2.20;;;;;;;;;;4995946;28;20228;-38
2023/03/23 08:59:53;;;;;;;3.93;2.37;;;;;;;;;;4997341;28;20203;-35
2023/03/23 09:02:23;;;;;;;4.10;2.20;;;;;;;;;;4999787;28;20272;-36
2023/03/23 09:04:50;;;;;;;4.07;1.80;;;;;;;;;;4998506;28;20259;-34
2023/03/23 09:07:19;;;;;;;2.90;2.00;;;;;;;;;;4997818;28;20281;-36
2023/03/23 09:09:46;;;;;;;2.17;1.73;;;;;;;;;;4997262;28;20216;-36
2023/03/23 09:12:13;;;;;;;2.43;1.57;;;;;;;;;;4997950;28;20211;-31
2023/03/23 09:14:41;;;;;;;1.30;1.20;;;;;;;;;;4998242;28;20209;-34
2023/03/23 09:17:08;;;;;;;1.40;1.20;;;;;;;;;;4998853;28;20331;-35
2023/03/23 09:19:36;;;;;;;1.07;1.00;;;;;;;;;;4997042;28;20214;-33
2023/03/23 09:22:04;;;;;;;1.10;1.00;;;;;;;;;;5000002;28;20197;-35
2023/03/23 09:24:33;;;;;;;1.07;1.00;;;;;;;;;;4999956;28;20217;-35
2023/03/23 09:27:00;;;;;;;1.60;1.10;;;;;;;;;;5000404;28;20260;-34
2023/03/23 09:29:27;;;;;;;1.00;1.00;;;;;;;;;;4994355;28;20214;-38
2023/03/23 09:31:55;;;;;;;1.30;1.20;;;;;;;;;;5000763;28;20224;-38
2023/03/23 09:34:24;;;;;;;1.40;1.30;;;;;;;;;;4997764;28;20264;-40
2023/03/23 09:36:51;;;;;;;1.20;0.90;;;;;;;;;;4997850;28;20233;-31
2023/03/23 09:39:19;;;;;;;1.73;1.10;;;;;;;;;;4992815;28;20503;-34
2023/03/23 09:42:12;;;;;;;1.33;1.17;;;;;;;;;;4999158;28;20208;-34
2023/03/23 09:44:47;;;;;;;1.20;1.10;;;;;;;;;;4999837;28;20203;-33
2023/03/23 09:47:18;;;;;;;1.40;1.30;;;;;;;;;;4997394;28;20227;-33
2023/03/23 09:49:48;;;;;;;1.27;1.10;;;;;;;;;;4997842;28;20200;-32
2023/03/23 09:52:16;;;;;;;2.07;1.40;;;;;;;;;;4994315;28;20229;-37
2023/03/23 09:54:44;;;;;;;1.93;1.17;;;;;;;;;;4999624;28;20232;-36
2023/03/23 09:57:17;;;;;;;1.63;1.30;;;;;;;;;;4997031;28;20227;-37
2023/03/23 09:59:48;;;;;;;1.87;1.10;;;;;;;;;;4994873;28;20212;-37
2023/03/23 10:02:17;;;;;;;1.67;1.03;;;;;;;;;;4998035;28;20209;-35
2023/03/23 10:04:46;;;;;;;1.10;1.00;;;;;;;;;;4997848;28;20210;-33
2023/03/23 10:07:15;;;;;;;1.73;1.40;;;;;;;;;;4995812;28;20268;-34
2023/03/23 10:09:43;;;;;;;1.13;1.00;;;;;;;;;;5000947;28;20204;-35
2023/03/23 10:12:26;;;;;;;1.43;1.20;;;;;;;;;;4998955;28;20232;-35
2023/03/23 10:15:11;;;;;;;3.80;1.40;;;;;;;;;;4995742;28;20222;-36
2023/03/23 10:17:40;;;;;;;1.17;1.10;;;;;;;;;;4995302;28;20222;-33
2023/03/23 10:20:17;;;;;;;1.60;0.87;;;;;;;;;;4998069;28;20212;-43
2023/03/23 10:22:47;;;;;;;1.13;0.90;;;;;;;;;;4994334;28;20258;-36
2023/03/23 10:25:17;;;;;;;1.47;1.03;;;;;;;;;;4998734;28;20219;-34
2023/03/23 10:27:46;;;;;;;2.40;1.23;;;;;;;;;;4998333;28;20228;-34
2023/03/23 10:30:16;;;;;;;1.67;1.20;;;;;;;;;;4999533;28;20205;-33
2023/03/23 10:32:47;;;;;;;1.33;1.00;;;;;;;;;;4998061;28;20216;-34
2023/03/23 10:35:17;;;;;;;2.00;1.20;;;;;;;;;;5000673;28;20274;-34
2023/03/23 10:37:46;;;;;;;3.27;1.20;;;;;;;;;;4998960;28;20327;-36
2023/03/23 10:40:15;;;;;;;2.03;1.30;;;;;;;;;;5000857;28;20357;-30
2023/03/23 10:42:43;;;;;;;2.80;1.00;;;;;;;;;;4998344;28;20282;-37
2023/03/23 10:45:17;;;;;;;3.63;1.73;;;;;;;;;;4999720;28;20250;-30
2023/03/23 10:47:46;;;;;;;1.10;1.10;;;;;;;;;;5000075;28;20223;-36
2023/03/23 10:50:15;;;;;;;1.00;1.00;;;;;;;;;;4999320;28;20205;-32
2023/03/23 10:52:44;;;;;;;2.23;1.30;;;;;;;;;;4997598;28;20247;-35
2023/03/23 10:55:12;;;;;;;1.70;1.20;;;;;;;;;;5003144;28;20210;-35
2023/03/23 10:57:40;;;;;;;1.20;1.10;;;;;;;;;;5001474;28;20685;-32
2023/03/23 11:00:17;;;;;;;1.10;1.00;;;;;;;;;;4998997;28;20215;-35
2023/03/23 11:02:48;;;;;;;1.20;1.10;;;;;;;;;;4999589;28;20203;-36
2023/03/23 11:05:19;;;;;;;2.47;1.30;;;;;;;;;;5000491;28;20223;-32
2023/03/23 11:07:50;;;;;;;1.63;1.17;;;;;;;;;;4998925;28;20215;-34
2023/03/23 11:10:19;;;;;;;1.27;1.00;;;;;;;;;;4997560;28;20215;-39
2023/03/23 11:12:47;;;;;;;2.83;1.13;;;;;;;;;;5002216;28;20223;-29
2023/03/23 11:15:27;;;;;;;1.43;1.30;;;;;;;;;;5001284;28;20211;-35
2023/03/23 11:18:00;;;;;;;1.87;1.03;;;;;;;;;;5002364;28;20235;-37
2023/03/23 11:20:28;;;;;;;1.20;1.00;;;;;;;;;;5000099;28;20207;-33
2023/03/23 11:22:56;;;;;;;1.03;0.90;;;;;;;;;;5001324;28;20290;-30
2023/03/23 11:25:23;;;;;;;1.67;1.00;;;;;;;;;;4998352;28;20240;-35
2023/03/23 11:27:50;;;;;;;1.13;1.07;;;;;;;;;;5004963;28;20215;-37
2023/03/23 11:30:22;;;;;;;1.33;1.20;;;;;;;;;;5001784;28;20294;-36
2023/03/23 11:32:50;;;;;;;1.57;1.07;;;;;;;;;;5001232;28;20211;-34
2023/03/23 11:35:21;;;;;;;0.80;0.80;;;;;;;;;;5001777;28;20222;-35
2023/03/23 11:37:50;;;;;;;5.90;1.30;;;;;;;;;;5000346;28;20250;-34
2023/03/23 11:40:18;;;;;;;1.30;1.20;;;;;;;;;;4998997;28;20220;-33
2023/03/23 11:42:46;;;;;;;2.90;1.10;;;;;;;;;;4998315;28;20204;-32
2023/03/23 11:45:22;;;;;;;1.50;1.40;;;;;;;;;;5000002;28;20217;-35
2023/03/23 11:47:54;;;;;;;2.57;1.10;;;;;;;;;;5003259;28;20234;-32
2023/03/23 11:50:25;;;;;;;1.33;1.23;;;;;;;;;;4999678;28;20204;-30
2023/03/23 11:52:54;;;;;;;0.97;0.97;;;;;;;;;;5000794;28;20242;-32
2023/03/23 11:55:23;;;;;;;1.03;1.00;;;;;;;;;;5002205;28;20674;-33
2023/03/23 11:57:50;;;;;;;3.10;1.27;;;;;;;;;;5004098;28;20227;-38
2023/03/23 12:00:19;;;;;;;1.77;1.20;;;;;;;;;;5006867;28;20222;-39
2023/03/23 12:03:04;;;;;;;1.23;1.07;;;;;;;;;;5004876;28;20220;-34
2023/03/23 12:05:36;;;;;;;1.47;1.10;;;;;;;;;;5002860;28;20203;-35
2023/03/23 12:08:16;;;;;;;1.27;1.17;;;;;;;;;;5002878;28;20223;-32
2023/03/23 12:10:47;;;;;;;2.50;1.27;;;;;;;;;;5003483;28;20254;-32
2023/03/23 12:13:23;;;;;;;1.63;1.30;;;;;;;;;;5003104;28;20242;-33
2023/03/23 12:15:54;;;;;;;1.40;0.87;;;;;;;;;;5001291;28;20211;-39
2023/03/23 12:18:28;;;;;;;2.93;1.13;;;;;;;;;;5007205;28;20267;-34
2023/03/23 12:21:02;;;;;;;1.13;1.00;;;;;;;;;;5004365;28;20203;-30
2023/03/23 12:23:35;;;;;;;1.20;1.10;;;;;;;;;;5003909;28;20199;-34
2023/03/23 12:26:07;;;;;;;2.43;1.10;;;;;;;;;;5002450;28;20207;-37
2023/03/23 12:28:39;;;;;;;1.53;1.43;;;;;;;;;;5004042;28;20200;-33
2023/03/23 12:31:11;;;;;;;1.33;1.20;;;;;;;;;;5004260;28;20216;-34
2023/03/23 12:33:46;;;;;;;2.40;1.00;;;;;;;;;;5003204;28;20207;-36
2023/03/23 12:36:18;;;;;;;1.10;1.10;;;;;;;;;;5003647;28;20195;-29
2023/03/23 12:38:54;;;;;;;1.30;1.20;;;;;;;;;;5000830;28;20207;-35
2023/03/23 12:41:24;;;;;;;1.30;1.20;;;;;;;;;;5003082;28;20215;-29
2023/03/23 12:43:54;;;;;;;1.30;1.20;;;;;;;;;;4999716;28;20199;-38
2023/03/23 12:46:35;;;;;;;1.37;1.00;;;;;;;;;;5006169;28;20228;-36
2023/03/23 12:49:06;;;;;;;1.60;1.50;;;;;;;;;;5001021;28;20211;-32
2023/03/23 12:51:37;;;;;;;1.10;1.00;;;;;;;;;;5003544;28;20230;-40
2023/03/23 12:54:09;;;;;;;1.93;1.40;;;;;;;;;;5002353;28;20203;-35
2023/03/23 12:56:38;;;;;;;1.73;1.10;;;;;;;;;;5004613;28;20228;-32
2023/03/23 12:59:12;;;;;;;1.40;1.30;;;;;;;;;;5001197;28;20211;-34
2023/03/23 13:01:41;;;;;;;1.17;1.07;;;;;;;;;;5005105;28;20215;-35
2023/03/23 13:04:10;;;;;;;1.13;1.03;;;;;;;;;;5003952;28;20208;-40
2023/03/23 13:06:39;;;;;;;1.40;1.30;;;;;;;;;;5004243;28;20219;-38
2023/03/23 13:09:10;;;;;;;1.20;0.97;;;;;;;;;;5003937;28;20203;-33
2023/03/23 13:11:38;;;;;;;4.20;1.00;;;;;;;;;;5003041;28;20591;-36
2023/03/23 13:14:12;;;;;;;2.07;1.10;;;;;;;;;;4999208;28;20334;-37
2023/03/23 13:16:41;;;;;;;1.03;1.00;;;;;;;;;;5004818;28;20227;-34
2023/03/23 13:19:12;;;;;;;2.07;1.03;;;;;;;;;;5005578;28;20200;-35
2023/03/23 13:21:45;;;;;;;1.83;1.10;;;;;;;;;;5003590;28;20215;-33
2023/03/23 13:24:15;;;;;;;2.90;1.10;;;;;;;;;;4999325;28;20207;-31
2023/03/23 13:26:43;;;;;;;1.40;1.27;;;;;;;;;;5002621;28;20240;-38
2023/03/23 13:29:14;;;;;;;1.50;1.30;;;;;;;;;;5002919;28;20226;-30
2023/03/23 13:31:41;;;;;;;2.10;1.03;;;;;;;;;;5003711;28;20310;-32
2023/03/23 13:34:15;;;;;;;1.20;1.10;;;;;;;;;;5002775;28;20219;-36
2023/03/23 13:36:45;;;;;;;0.80;0.80;;;;;;;;;;5003522;28;20292;-34
2023/03/23 13:39:20;;;;;;;1.63;1.10;;;;;;;;;;5007147;28;20208;-38
2023/03/23 13:41:48;;;;;;;1.80;1.10;;;;;;;;;;5005240;28;20237;-34
2023/03/23 13:44:18;;;;;;;1.17;1.17;;;;;;;;;;5002470;28;20259;-36
2023/03/23 13:46:55;;;;;;;1.30;1.10;;;;;;;;;;5003786;28;20287;-37
2023/03/23 13:49:25;;;;;;;1.20;1.10;;;;;;;;;;5001778;28;20195;-30
2023/03/23 13:52:02;;;;;;;1.20;1.10;;;;;;;;;;5002489;28;20319;-33
2023/03/23 13:54:33;;;;;;;0.97;0.97;;;;;;;;;;5000498;28;20218;-33
2023/03/23 13:57:02;;;;;;;1.40;1.30;;;;;;;;;;5003226;28;20223;-37
2023/03/23 13:59:32;;;;;;;1.40;1.30;;;;;;;;;;5001658;28;20213;-30
2023/03/23 14:02:19;;;;;;;1.17;1.07;;;;;;;;;;5003276;28;20200;-34
2023/03/23 14:04:48;;;;;;;1.30;1.20;;;;;;;;;;5000596;28;20210;-34
2023/03/23 14:07:19;;;;;;;1.20;1.03;;;;;;;;;;5002828;28;20318;-34
2023/03/23 14:09:47;;;;;;;2.13;1.27;;;;;;;;;;5000307;28;20211;-30
2023/03/23 14:12:17;;;;;;;1.27;1.17;;;;;;;;;;5000289;28;20305;-33
2023/03/23 14:14:45;;;;;;;2.23;1.30;;;;;;;;;;5002353;28;20204;-33
2023/03/23 14:17:14;;;;;;;2.40;1.47;;;;;;;;;;5006111;28;20232;-37
2023/03/23 14:19:43;;;;;;;3.10;1.37;;;;;;;;;;5003517;28;20199;-31
2023/03/23 14:22:20;;;;;;;1.23;1.10;;;;;;;;;;5000181;28;20303;-30
2023/03/23 14:24:47;;;;;;;1.23;1.13;;;;;;;;;;5001987;28;20203;-33
2023/03/23 14:27:16;;;;;;;1.20;1.10;;;;;;;;;;5000407;28;20290;-31
2023/03/23 14:29:43;;;;;;;2.53;1.20;;;;;;;;;;5000225;28;20218;-34
2023/03/23 14:32:13;;;;;;;3.10;1.30;;;;;;;;;;5000744;28;20223;-38
2023/03/23 14:34:40;;;;;;;2.20;1.10;;;;;;;;;;4999693;28;20196;-33
2023/03/23 14:37:11;;;;;;;4.27;1.80;;;;;;;;;;4999267;28;20224;-38
2023/03/23 14:39:40;;;;;;;1.17;1.07;;;;;;;;;;5003342;28;20208;-32
2023/03/23 14:42:08;;;;;;;1.27;1.20;;;;;;;;;;5002825;28;20291;-30
2023/03/23 14:44:37;;;;;;;1.83;1.20;;;;;;;;;;4998970;28;20200;-34
2023/03/23 14:47:05;;;;;;;1.30;1.20;;;;;;;;;;5004782;28;20242;-28
2023/03/23 14:49:35;;;;;;;2.27;1.10;;;;;;;;;;5002569;28;20195;-36
2023/03/23 14:52:05;;;;;;;1.70;1.60;;;;;;;;;;5002313;28;20258;-38
2023/03/23 14:54:33;;;;;;;1.63;1.53;;;;;;;;;;5002398;28;20203;-31
2023/03/23 14:57:10;;;;;;;1.77;1.67;;;;;;;;;;5003102;28;20223;-35
2023/03/23 14:59:37;;;;;;;1.57;1.43;;;;;;;;;;4999503;28;20204;-32
2023/03/23 15:02:05;;;;;;;1.47;1.37;;;;;;;;;;5001326;28;20200;-34